createdAt,value
2018-03-27T00:02:26.486Z,40.88
2018-03-27T00:04:55.330Z,38.47
2018-03-27T00:07:23.389Z,40.27
2018-03-27T00:09:53.189Z,39.97
2018-03-27T00:12:21.239Z,37.30
2018-03-27T00:14:50.090Z,37.80
2018-03-27T00:17:18.154Z,40.40
2018-03-27T00:19:46.224Z,38.67
2018-03-27T00:22:14.286Z,38.17
2018-03-27T00:24:43.245Z,38.07
2018-03-27T00:27:11.398Z,36.13
2018-03-27T00:29:57.484Z,36.47
2018-03-27T00:32:43.417Z,34.70
2018-03-27T00:35:29.318Z,37.72
2018-03-27T00:38:15.142Z,36.70
2018-03-27T00:40:43.277Z,36.77
2018-03-27T00:43:14.774Z,36.00
2018-03-27T00:45:42.845Z,37.07
2018-03-27T00:48:11.018Z,40.57
2018-03-27T00:50:39.090Z,36.57
2018-03-27T00:53:07.166Z,36.23
2018-03-27T00:55:35.234Z,35.73
2018-03-27T00:58:03.304Z,34.10
2018-03-27T01:00:32.222Z,37.78
2018-03-27T01:03:00.289Z,36.17
2018-03-27T01:05:28.333Z,36.40
2018-03-27T01:07:56.438Z,35.20
2018-03-27T01:10:24.494Z,38.87
2018-03-27T01:12:53.319Z,34.63
2018-03-27T01:15:21.871Z,37.63
2018-03-27T01:17:50.016Z,38.80
2018-03-27T01:20:18.059Z,38.47
2018-03-27T01:22:46.130Z,39.33
2018-03-27T01:25:14.200Z,36.33
2018-03-27T01:27:42.262Z,37.67
2018-03-27T01:30:10.365Z,38.33
2018-03-27T01:32:38.538Z,36.90
2018-03-27T01:35:06.626Z,36.92
2018-03-27T01:37:34.690Z,38.10
2018-03-27T01:40:02.759Z,38.53
2018-03-27T01:42:30.825Z,39.90
2018-03-27T01:44:58.887Z,37.15
2018-03-27T01:47:26.994Z,36.47
2018-03-27T01:49:55.053Z,39.17
2018-03-27T01:52:23.119Z,36.97
2018-03-27T01:54:52.941Z,39.70
2018-03-27T01:57:21.007Z,41.80
2018-03-27T01:59:49.113Z,37.73
2018-03-27T02:02:17.197Z,39.87
2018-03-27T02:04:45.262Z,37.47
2018-03-27T02:07:13.350Z,37.77
2018-03-27T02:09:41.408Z,40.60
2018-03-27T02:12:14.932Z,37.80
2018-03-27T02:14:48.577Z,40.67
2018-03-27T02:17:22.224Z,37.67
2018-03-27T02:19:56.011Z,38.43
2018-03-27T02:22:24.078Z,40.90
2018-03-27T02:24:52.290Z,36.90
2018-03-27T02:27:20.462Z,39.78
2018-03-27T02:29:48.513Z,37.37
2018-03-27T02:32:16.690Z,45.28
2018-03-27T02:34:44.748Z,38.57
2018-03-27T02:37:13.587Z,39.97
2018-03-27T02:39:41.668Z,44.67
2018-03-27T02:42:09.745Z,38.70
2018-03-27T02:44:37.802Z,36.40
2018-03-27T02:47:05.869Z,41.50
2018-03-27T02:49:33.930Z,40.93
2018-03-27T02:52:03.899Z,41.40
2018-03-27T02:54:33.129Z,42.70
2018-03-27T02:57:01.167Z,42.33
2018-03-27T02:59:29.246Z,44.53
2018-03-27T03:01:57.322Z,46.17
2018-03-27T03:04:25.384Z,41.40
2018-03-27T03:06:53.459Z,45.30
2018-03-27T03:09:21.560Z,41.40
2018-03-27T03:11:49.634Z,41.23
2018-03-27T03:14:17.697Z,43.37
2018-03-27T03:16:45.781Z,43.93
2018-03-27T03:19:13.863Z,45.50
2018-03-27T03:21:41.922Z,42.53
2018-03-27T03:24:09.998Z,44.63
2018-03-27T03:26:38.113Z,43.85
2018-03-27T03:29:06.134Z,43.67
2018-03-27T03:31:34.195Z,40.93
2018-03-27T03:34:02.261Z,43.17
2018-03-27T03:36:31.090Z,43.50
2018-03-27T03:38:59.154Z,45.47
2018-03-27T03:41:27.220Z,43.03
2018-03-27T03:43:55.282Z,43.80
2018-03-27T03:46:24.126Z,41.70
2018-03-27T03:48:52.194Z,45.87
2018-03-27T03:51:20.252Z,41.78
2018-03-27T03:53:48.323Z,43.43
2018-03-27T03:56:16.377Z,44.50
2018-03-27T03:58:45.243Z,42.30
2018-03-27T04:01:13.297Z,44.45
2018-03-27T04:03:41.370Z,42.97
2018-03-27T04:06:09.430Z,43.30
2018-03-27T04:08:37.550Z,41.97
2018-03-27T04:11:05.597Z,47.87
2018-03-27T04:13:35.017Z,45.55
2018-03-27T04:16:04.213Z,43.20
2018-03-27T04:18:32.279Z,42.97
2018-03-27T04:21:00.373Z,47.03
2018-03-27T04:23:28.444Z,42.00
2018-03-27T04:25:56.507Z,44.53
2018-03-27T04:28:24.581Z,44.07
2018-03-27T04:30:52.634Z,44.10
2018-03-27T04:33:20.698Z,44.70
2018-03-27T04:35:49.529Z,46.53
2018-03-27T04:38:17.590Z,43.47
2018-03-27T04:40:45.674Z,44.87
2018-03-27T04:43:13.726Z,41.60
2018-03-27T04:45:41.850Z,42.23
2018-03-27T04:48:09.918Z,48.57
2018-03-27T04:50:37.982Z,45.50
2018-03-27T04:53:06.057Z,45.15
2018-03-27T04:55:35.381Z,47.10
2018-03-27T04:58:04.665Z,42.63
2018-03-27T05:00:32.714Z,48.93
2018-03-27T05:03:00.784Z,45.17
2018-03-27T05:05:29.670Z,44.30
2018-03-27T05:07:58.530Z,49.10
2018-03-27T05:10:26.599Z,47.65
2018-03-27T05:12:54.655Z,46.83
2018-03-27T05:15:22.757Z,47.17
2018-03-27T05:17:50.826Z,43.00
2018-03-27T05:20:18.894Z,49.80
2018-03-27T05:22:46.989Z,52.50
2018-03-27T05:25:15.061Z,49.70
2018-03-27T05:27:43.146Z,47.77
2018-03-27T05:30:11.356Z,48.17
2018-03-27T05:32:40.178Z,45.30
2018-03-27T05:35:08.252Z,47.25
2018-03-27T05:37:36.318Z,44.37
2018-03-27T05:40:05.098Z,43.15
2018-03-27T05:42:35.043Z,44.47
2018-03-27T05:45:03.156Z,45.55
2018-03-27T05:47:31.338Z,45.07
2018-03-27T05:49:59.406Z,44.75
2018-03-27T05:52:27.458Z,44.70
2018-03-27T05:54:55.551Z,41.53
2018-03-27T05:57:23.610Z,41.80
2018-03-27T05:59:52.452Z,42.47
2018-03-27T06:02:20.514Z,43.87
2018-03-27T06:04:49.395Z,42.97
2018-03-27T06:07:17.468Z,42.03
2018-03-27T06:09:45.558Z,44.77
2018-03-27T06:12:13.630Z,45.27
2018-03-27T06:14:41.690Z,44.10
2018-03-27T06:17:09.836Z,47.03
2018-03-27T06:19:38.673Z,48.20
2018-03-27T06:22:06.747Z,45.50
2018-03-27T06:24:36.362Z,47.47
2018-03-27T06:27:05.549Z,44.10
2018-03-27T06:29:33.659Z,42.47
2018-03-27T06:32:01.724Z,47.25
2018-03-27T06:34:29.894Z,44.40
2018-03-27T06:36:58.143Z,47.67
2018-03-27T06:39:26.257Z,45.83
2018-03-27T06:41:54.322Z,48.63
2018-03-27T06:44:22.390Z,44.38
2018-03-27T06:46:50.451Z,45.13
2018-03-27T06:49:18.527Z,50.28
2018-03-27T06:51:46.577Z,49.00
2018-03-27T06:54:15.409Z,52.83
2018-03-27T06:56:44.025Z,49.33
2018-03-27T06:59:12.098Z,50.12
2018-03-27T07:01:40.166Z,63.25
2018-03-27T07:04:08.234Z,53.05
2018-03-27T07:06:36.286Z,48.13
2018-03-27T07:09:04.368Z,49.05
2018-03-27T07:11:32.806Z,51.60
2018-03-27T07:14:01.744Z,50.43
2018-03-27T07:16:31.290Z,52.17
2018-03-27T07:18:59.357Z,51.75
2018-03-27T07:21:27.443Z,51.27
2018-03-27T07:23:55.521Z,55.77
2018-03-27T07:26:23.587Z,50.13
2018-03-27T07:28:52.965Z,53.57
2018-03-27T07:31:21.050Z,52.77
2018-03-27T07:33:49.106Z,52.57
2018-03-27T07:36:17.582Z,49.47
2018-03-27T07:38:47.150Z,51.27
2018-03-27T07:41:15.218Z,51.73
2018-03-27T07:43:43.299Z,50.90
2018-03-27T07:46:11.361Z,46.40
2018-03-27T07:48:39.449Z,47.70
2018-03-27T07:51:07.511Z,51.23
2018-03-27T07:53:36.731Z,50.33
2018-03-27T07:56:04.806Z,51.65
2018-03-27T07:58:32.859Z,52.30
2018-03-27T08:01:00.923Z,52.53
2018-03-27T08:03:29.035Z,48.50
2018-03-27T08:05:57.117Z,46.70
2018-03-27T08:08:25.168Z,49.67
2018-03-27T08:10:54.083Z,47.60
2018-03-27T08:13:22.166Z,45.10
2018-03-27T08:15:50.301Z,49.20
2018-03-27T08:18:18.428Z,45.78
2018-03-27T08:20:46.491Z,38.23
2018-03-27T08:23:14.898Z,43.00
2018-03-27T08:25:42.972Z,45.20
2018-03-27T08:28:11.130Z,44.85
2018-03-27T08:30:39.310Z,45.60
2018-03-27T08:33:07.362Z,40.27
2018-03-27T08:35:35.430Z,40.77
2018-03-27T08:38:03.509Z,37.73
2018-03-27T08:40:31.594Z,42.80
2018-03-27T08:42:59.659Z,45.00
2018-03-27T08:45:27.766Z,44.63
2018-03-27T08:47:55.982Z,41.33
2018-03-27T08:50:24.130Z,43.20
2018-03-27T08:52:53.243Z,42.80
2018-03-27T08:55:21.407Z,35.93
2018-03-27T08:57:49.820Z,39.23
2018-03-27T09:00:17.970Z,43.00
2018-03-27T09:02:46.143Z,41.90
2018-03-27T09:05:14.165Z,43.13
2018-03-27T09:07:43.018Z,41.42
2018-03-27T09:10:11.206Z,39.30
2018-03-27T09:12:39.373Z,38.47
2018-03-27T09:15:07.805Z,39.13
2018-03-27T09:17:35.847Z,41.20
2018-03-27T09:20:03.918Z,36.72
2018-03-27T09:22:32.086Z,37.93
2018-03-27T09:25:00.979Z,34.70
2018-03-27T09:27:29.039Z,40.60
2018-03-27T09:29:57.097Z,36.63
2018-03-27T09:32:25.154Z,36.37
2018-03-27T09:34:53.997Z,36.27
2018-03-27T09:37:22.066Z,33.67
2018-03-27T09:39:50.162Z,34.17
2018-03-27T09:42:18.214Z,34.67
2018-03-27T09:44:46.326Z,34.23
2018-03-27T09:47:14.422Z,33.47
2018-03-27T09:49:43.475Z,33.38
2018-03-27T09:52:11.527Z,33.70
2018-03-27T09:54:39.586Z,33.03
2018-03-27T09:57:09.106Z,31.12
2018-03-27T09:59:38.281Z,34.63
2018-03-27T10:02:08.239Z,36.17
2018-03-27T10:04:36.304Z,32.23
2018-03-27T10:07:04.418Z,34.20
2018-03-27T10:09:32.489Z,31.60
2018-03-27T10:12:00.559Z,31.75
2018-03-27T10:14:28.610Z,31.67
2018-03-27T10:16:56.684Z,31.73
2018-03-27T10:19:24.730Z,31.17
2018-03-27T10:21:53.591Z,29.17
2018-03-27T10:24:21.664Z,30.30
2018-03-27T10:26:49.734Z,32.70
2018-03-27T10:29:17.818Z,28.87
2018-03-27T10:31:45.897Z,29.13
2018-03-27T10:34:13.954Z,27.23
2018-03-27T10:36:42.016Z,27.80
2018-03-27T10:39:10.830Z,28.75
2018-03-27T10:41:39.089Z,30.80
2018-03-27T10:44:07.138Z,29.50
2018-03-27T10:46:35.990Z,30.40
2018-03-27T10:49:04.062Z,26.83
2018-03-27T10:51:32.139Z,28.30
2018-03-27T10:54:00.195Z,27.27
2018-03-27T10:56:28.266Z,26.33
2018-03-27T10:58:56.321Z,25.17
2018-03-27T11:01:25.161Z,27.17
2018-03-27T11:03:53.225Z,25.03
2018-03-27T11:06:21.289Z,26.40
2018-03-27T11:08:49.342Z,26.90
2018-03-27T11:11:18.972Z,28.45
2018-03-27T11:13:47.030Z,26.77
2018-03-27T11:16:15.866Z,25.87
2018-03-27T11:18:44.629Z,28.95
2018-03-27T11:21:12.703Z,26.87
2018-03-27T11:23:40.758Z,23.23
2018-03-27T11:26:10.730Z,24.48
2018-03-27T11:28:39.537Z,23.77
2018-03-27T11:31:07.706Z,24.45
2018-03-27T11:33:35.778Z,23.60
2018-03-27T11:36:03.850Z,24.83
2018-03-27T11:38:31.902Z,24.07
2018-03-27T11:40:59.966Z,26.33
2018-03-27T11:43:28.022Z,22.90
2018-03-27T11:45:56.175Z,26.00
2018-03-27T11:48:24.293Z,23.12
2018-03-27T11:50:52.733Z,22.53
2018-03-27T11:53:20.911Z,20.50
2018-03-27T11:55:49.001Z,23.17
2018-03-27T11:58:17.166Z,21.10
2018-03-27T12:00:45.345Z,21.00
2018-03-27T12:03:13.523Z,21.20
2018-03-27T12:05:41.602Z,20.47
2018-03-27T12:08:10.894Z,20.73
2018-03-27T12:10:40.092Z,20.83
2018-03-27T12:13:08.154Z,20.45
2018-03-27T12:15:36.252Z,19.90
2018-03-27T12:18:04.323Z,20.45
2018-03-27T12:20:32.403Z,22.90
2018-03-27T12:23:00.582Z,20.15
2018-03-27T12:25:28.933Z,18.43
2018-03-27T12:27:57.020Z,18.55
2018-03-27T12:30:25.093Z,18.50
2018-03-27T12:32:53.198Z,18.20
2018-03-27T12:35:21.262Z,16.70
2018-03-27T12:37:49.349Z,20.50
2018-03-27T12:40:17.405Z,20.35
2018-03-27T12:42:45.483Z,19.42
2018-03-27T12:45:13.544Z,18.10
2018-03-27T12:47:41.646Z,16.73
2018-03-27T12:50:11.335Z,18.10
2018-03-27T12:52:40.547Z,18.70
2018-03-27T12:55:09.066Z,17.05
2018-03-27T12:57:37.954Z,18.83
2018-03-27T13:00:06.034Z,17.70
2018-03-27T13:02:34.105Z,19.70
2018-03-27T13:05:02.177Z,18.45
2018-03-27T13:07:30.262Z,18.70
2018-03-27T13:09:58.326Z,18.75
2018-03-27T13:12:26.388Z,17.83
2018-03-27T13:14:54.447Z,18.23
2018-03-27T13:17:22.561Z,20.92
2018-03-27T13:19:50.640Z,20.37
2018-03-27T13:22:18.706Z,19.48
2018-03-27T13:24:46.791Z,20.00
2018-03-27T13:27:14.869Z,21.20
2018-03-27T13:29:42.921Z,20.58
2018-03-27T13:32:11.967Z,18.95
2018-03-27T13:34:41.149Z,18.57
2018-03-27T13:37:09.390Z,20.88
2018-03-27T13:39:37.450Z,23.50
2018-03-27T13:42:06.286Z,19.40
2018-03-27T13:44:34.365Z,21.20
2018-03-27T13:47:02.432Z,18.83
2018-03-27T13:49:30.498Z,19.00
2018-03-27T13:51:58.898Z,18.40
2018-03-27T13:54:26.979Z,19.80
2018-03-27T13:56:55.178Z,19.60
2018-03-27T13:59:23.339Z,18.15
2018-03-27T14:01:53.207Z,18.87
2018-03-27T14:04:22.044Z,19.80
2018-03-27T14:06:50.172Z,19.60
2018-03-27T14:09:18.205Z,18.40
2018-03-27T14:11:46.282Z,17.70
2018-03-27T14:14:14.361Z,19.53
2018-03-27T14:16:42.434Z,18.70
2018-03-27T14:19:11.630Z,20.53
2018-03-27T14:21:39.810Z,20.20
2018-03-27T14:24:07.890Z,21.27
2018-03-27T14:26:36.057Z,20.03
2018-03-27T14:29:04.238Z,18.62
2018-03-27T14:31:32.298Z,19.87
2018-03-27T14:34:00.414Z,19.23
2018-03-27T14:36:28.489Z,23.12
2018-03-27T14:38:57.539Z,20.93
2018-03-27T14:41:25.655Z,20.83
2018-03-27T14:43:53.746Z,20.17
2018-03-27T14:46:21.810Z,19.80
2018-03-27T14:48:49.982Z,21.42
2018-03-27T14:51:18.061Z,18.80
2018-03-27T14:53:46.126Z,20.77
2018-03-27T14:56:14.184Z,19.50
2018-03-27T14:58:42.252Z,20.47
2018-03-27T15:01:10.316Z,17.98
2018-03-27T15:03:38.434Z,21.50
2018-03-27T15:06:06.490Z,20.43
2018-03-27T15:08:34.589Z,20.40
2018-03-27T15:11:03.378Z,17.60
2018-03-27T15:13:31.446Z,20.60
2018-03-27T15:15:59.512Z,17.73
2018-03-27T15:18:27.606Z,18.07
2018-03-27T15:20:55.694Z,20.47
2018-03-27T15:23:23.866Z,18.60
2018-03-27T15:25:52.158Z,17.90
2018-03-27T15:28:20.233Z,18.48
2018-03-27T15:30:48.290Z,18.83
2018-03-27T15:33:16.367Z,18.13
2018-03-27T15:35:45.266Z,18.37
2018-03-27T15:38:13.327Z,18.20
2018-03-27T15:40:41.390Z,19.63
2018-03-27T15:43:09.494Z,19.17
2018-03-27T15:45:37.557Z,20.20
2018-03-27T15:48:05.630Z,17.20
2018-03-27T15:50:35.681Z,18.83
2018-03-27T15:53:04.574Z,19.53
2018-03-27T15:55:32.674Z,20.87
2018-03-27T15:58:00.836Z,20.30
2018-03-27T16:00:28.891Z,19.45
2018-03-27T16:02:57.197Z,21.90
2018-03-27T16:05:25.259Z,20.50
2018-03-27T16:07:53.450Z,19.80
2018-03-27T16:10:21.555Z,19.98
2018-03-27T16:12:50.596Z,20.60
2018-03-27T16:15:18.653Z,18.52
2018-03-27T16:17:46.730Z,19.43
2018-03-27T16:20:14.807Z,19.70
2018-03-27T16:22:44.344Z,19.30
2018-03-27T16:25:13.392Z,18.35
2018-03-27T16:27:43.349Z,19.10
2018-03-27T16:30:11.677Z,21.03
2018-03-27T16:32:39.754Z,21.80
2018-03-27T16:35:08.777Z,21.13
2018-03-27T16:37:37.619Z,19.30
2018-03-27T16:40:05.714Z,20.77
2018-03-27T16:42:33.830Z,20.83
2018-03-27T16:45:02.042Z,21.20
2018-03-27T16:47:30.130Z,20.63
2018-03-27T16:49:58.194Z,21.85
2018-03-27T16:52:26.498Z,20.52
2018-03-27T16:54:54.679Z,19.40
2018-03-27T16:57:22.812Z,21.93
2018-03-27T16:59:50.938Z,20.23
2018-03-27T17:02:19.206Z,20.33
2018-03-27T17:04:47.285Z,24.27
2018-03-27T17:07:15.334Z,38.40
2018-03-27T17:09:57.545Z,23.10
2018-03-27T17:12:25.636Z,20.48
2018-03-27T17:15:06.703Z,20.27
2018-03-27T17:17:35.089Z,20.37
2018-03-27T17:20:03.250Z,18.83
2018-03-27T17:22:31.298Z,21.00
2018-03-27T17:24:59.425Z,20.03
2018-03-27T17:27:27.766Z,19.25
2018-03-27T17:29:55.821Z,20.10
2018-03-27T17:32:24.662Z,20.63
2018-03-27T17:34:52.741Z,21.70
2018-03-27T17:37:21.017Z,22.57
2018-03-27T17:39:49.109Z,21.37
2018-03-27T17:42:17.159Z,20.20
2018-03-27T17:44:45.254Z,21.90
2018-03-27T17:47:14.540Z,21.40
2018-03-27T17:49:42.646Z,21.27
2018-03-27T17:52:10.675Z,23.07
2018-03-27T17:54:38.782Z,22.70
2018-03-27T17:57:06.865Z,21.02
2018-03-27T17:59:34.942Z,28.47
2018-03-27T18:02:03.033Z,28.87
2018-03-27T18:04:31.389Z,24.30
2018-03-27T18:07:01.297Z,22.23
2018-03-27T18:09:29.358Z,19.17
2018-03-27T18:11:57.410Z,23.33
2018-03-27T18:14:26.362Z,22.17
2018-03-27T18:16:54.623Z,24.40
2018-03-27T18:19:22.694Z,20.90
2018-03-27T18:21:51.654Z,21.17
2018-03-27T18:24:20.490Z,22.17
2018-03-27T18:26:48.866Z,22.80
2018-03-27T18:29:16.978Z,22.13
2018-03-27T18:31:45.925Z,23.10
2018-03-27T18:34:15.117Z,22.03
2018-03-27T18:36:45.086Z,22.83
2018-03-27T18:39:13.345Z,24.57
2018-03-27T18:41:41.400Z,25.20
2018-03-27T18:44:09.459Z,24.43
2018-03-27T18:46:38.276Z,20.40
2018-03-27T18:49:06.444Z,24.23
2018-03-27T18:51:35.258Z,23.60
2018-03-27T18:54:03.335Z,22.33
2018-03-27T18:56:31.454Z,22.17
2018-03-27T18:58:59.630Z,20.92
2018-03-27T19:01:27.670Z,23.23
2018-03-27T19:03:55.926Z,22.83
2018-03-27T19:06:24.761Z,21.73
2018-03-27T19:08:52.821Z,30.50
2018-03-27T19:11:21.252Z,25.30
2018-03-27T19:13:49.454Z,24.00
2018-03-27T19:16:17.642Z,21.97
2018-03-27T19:18:46.102Z,25.65
2018-03-27T19:21:14.561Z,24.93
2018-03-27T19:23:42.641Z,22.97
2018-03-27T19:26:10.711Z,23.87
2018-03-27T19:28:38.786Z,21.43
2018-03-27T19:31:06.969Z,23.57
2018-03-27T19:33:35.350Z,21.50
2018-03-27T19:36:03.429Z,24.20
2018-03-27T19:38:31.608Z,23.58
2018-03-27T19:40:59.759Z,19.17
2018-03-27T19:43:27.844Z,22.47
2018-03-27T19:45:56.712Z,21.00
2018-03-27T19:48:24.831Z,20.00
2018-03-27T19:50:52.994Z,21.30
2018-03-27T19:53:21.086Z,21.43
2018-03-27T19:55:49.184Z,21.90
2018-03-27T19:58:17.230Z,21.60
2018-03-27T20:00:46.405Z,22.47
2018-03-27T20:03:15.196Z,20.93
2018-03-27T20:05:43.289Z,20.83
2018-03-27T20:08:11.338Z,21.00
2018-03-27T20:10:39.406Z,22.57
2018-03-27T20:13:08.254Z,43.27
2018-03-27T20:15:41.704Z,22.73
2018-03-27T20:18:04.615Z,22.93
2018-03-27T20:20:32.680Z,22.92
2018-03-27T20:23:01.093Z,21.60
2018-03-27T20:25:29.194Z,21.60
2018-03-27T20:27:58.051Z,22.30
2018-03-27T20:30:26.106Z,24.30
2018-03-27T20:32:54.272Z,23.00
2018-03-27T20:35:22.362Z,20.77
2018-03-27T20:37:50.450Z,20.00
2018-03-27T20:40:18.518Z,21.47
2018-03-27T20:42:47.659Z,23.35
2018-03-27T20:45:15.722Z,24.37
2018-03-27T20:47:43.771Z,22.87
2018-03-27T20:50:12.078Z,20.43
2018-03-27T20:52:40.139Z,19.40
2018-03-27T20:55:08.202Z,21.93
2018-03-27T20:57:36.335Z,21.47
2018-03-27T21:00:05.358Z,19.55
2018-03-27T21:02:33.461Z,19.92
2018-03-27T21:05:02.046Z,19.15
2018-03-27T21:07:30.161Z,19.77
2018-03-27T21:09:59.298Z,20.30
2018-03-27T21:12:27.439Z,21.23
2018-03-27T21:14:56.295Z,18.43
2018-03-27T21:17:24.367Z,18.25
2018-03-27T21:19:52.646Z,20.40
2018-03-27T21:22:20.738Z,19.80
2018-03-27T21:24:48.789Z,18.70
2018-03-27T21:27:18.109Z,18.93
2018-03-27T21:29:46.406Z,17.60
2018-03-27T21:32:14.476Z,18.13
2018-03-27T21:34:42.529Z,17.83
2018-03-27T21:37:10.734Z,17.57
2018-03-27T21:39:39.124Z,18.60
2018-03-27T21:42:07.988Z,17.83
2018-03-27T21:44:36.393Z,18.50
2018-03-27T21:47:05.502Z,18.60
2018-03-27T21:49:34.489Z,15.38
2018-03-27T21:52:02.566Z,15.97
2018-03-27T21:54:30.865Z,13.73
2018-03-27T21:56:59.806Z,15.20
2018-03-27T21:59:27.870Z,14.10
2018-03-27T22:01:56.693Z,15.07
2018-03-27T22:04:24.755Z,14.70
2018-03-27T22:06:52.834Z,13.52
2018-03-27T22:09:20.886Z,11.73
2018-03-27T22:11:49.728Z,12.90
2018-03-27T22:14:18.655Z,11.65
2018-03-27T22:16:46.807Z,12.40
2018-03-27T22:19:14.878Z,12.20
2018-03-27T22:21:42.954Z,12.93
2018-03-27T22:24:11.028Z,11.80
2018-03-27T22:26:39.084Z,12.47
2018-03-27T22:29:07.234Z,11.30
2018-03-27T22:31:36.894Z,11.70
2018-03-27T22:34:05.087Z,12.60
2018-03-27T22:36:33.250Z,12.90
2018-03-27T22:39:01.320Z,13.70
2018-03-27T22:41:29.375Z,12.40
2018-03-27T22:43:57.437Z,12.60
2018-03-27T22:46:26.262Z,12.60
2018-03-27T22:48:54.344Z,11.60
2018-03-27T22:51:22.397Z,12.55
2018-03-27T22:53:50.507Z,13.70
2018-03-27T22:56:19.506Z,11.45
2018-03-27T22:58:47.573Z,11.30
2018-03-27T23:01:15.654Z,13.23
2018-03-27T23:03:43.725Z,12.53
2018-03-27T23:06:11.875Z,13.10
2018-03-27T23:08:39.990Z,13.83
2018-03-27T23:11:08.066Z,11.15
2018-03-27T23:13:36.130Z,11.17
2018-03-27T23:16:04.198Z,11.75
2018-03-27T23:18:32.253Z,12.10
2018-03-27T23:21:00.376Z,11.85
2018-03-27T23:23:28.550Z,12.13
2018-03-27T23:25:56.626Z,10.20
2018-03-27T23:28:24.706Z,12.15
2018-03-27T23:30:52.764Z,11.80
2018-03-27T23:33:20.822Z,11.17
2018-03-27T23:35:49.989Z,13.40
2018-03-27T23:38:19.946Z,11.68
2018-03-27T23:40:48.106Z,12.30
2018-03-27T23:43:16.930Z,12.40
2018-03-27T23:45:45.066Z,12.70
2018-03-27T23:48:13.106Z,11.23
2018-03-27T23:50:41.170Z,11.60
2018-03-27T23:53:09.265Z,11.95
2018-03-27T23:55:37.450Z,12.23
2018-03-27T23:58:05.507Z,11.00
